map of CGP home
CGP - Airport
Location
City:  Chittagong, Bangladesh
Name:Shah Amanat International Airport
ICAO:VGEG
IATA:CGP

Details
Type:Airport (Aerodrome, Airfield)
Use:Public/Civil, International (customs port of entry)
Latitude:22°15'25"N (22.257022)
Longitude:91°49'20"E (91.822208)
Elevation:14 ft (4 m)
Variation:0.55°W (WMM2015v2 magnetic declination)
-0.02° annual change
Runways:1
Longest:9646 × 148 ft (2940 × 45 m), paved

Time
Time Zone:UTC+6
Local Time:

Weather
METAR:VGEG 041400Z 35011KT 5000 NSC 23/10 Q1017 NOSIG
TAF:VGEG 032300Z 0400/0506 06003KT 1500 BR SCT014
TEMPO 0400/0403 00000KT 0800 FG BKN008
BECMG 0403/0405 34006KT 3500 HZ FEW018
BECMG 0410/0412 33003KT 3100 HZ NSC
BECMG 0422/0424 05004KT 1500 BR SCT015

Related Locations
Nearby:
Farthest:SCFX: 11863 mi / 19091 km
Isla San Félix, Desventuradas Islands, VS, CL

Find:

   beyond  
but within

Other Information
Maps:
NOTAMs:
Links:
Sources:

  
  • flag of Bangladesh
  

Sectional Chart

Flight Planning
at skyvector.com

Satellite Image

Google Maps Satellite view

 

Copyright © 2004-2019 Karl L. Swartz. All rights reserved.
The Great Circle Mapper name and logo are trademarks of the Great Circle Mapper.
All other trademarks mentioned herein belong to their respective owners.
Please see credits for attibutions and further copyright information.

  Follow gcmap on Facebook Follow gcmap on Twitter GCmap on LinkedIn

hCard Microformat

Geo Microformat